Time;durP1;ratioP1;P1;durP2;ratioP2;P2;SDS_P1;SDS_P2;PMS_P1;PMS_P2;Temp;Humidity;BMP_temperature;BMP_pressure;BME280_temperature;BME280_humidity;BME280_pressure;Samples;Min_cycle;Max_cycle;Signal;HPM_P1;HPM_P2
2022/01/22 00:00:36;;;;;;;16.23;4.28;;;;;;;;;;5094115;28;20051;-64
2022/01/22 00:03:02;;;;;;;16.88;5.40;;;;;;;;;;5093374;28;20408;-64
2022/01/22 00:05:28;;;;;;;11.98;4.05;;;;;;;;;;5094161;28;20047;-65
2022/01/22 00:07:54;;;;;;;18.25;4.20;;;;;;;;;;5093641;28;20040;-64
2022/01/22 00:10:23;;;;;;;13.65;4.15;;;;;;;;;;5093460;28;20043;-64
2022/01/22 00:13:07;;;;;;;11.52;4.20;;;;;;;;;;5093170;28;20101;-64
2022/01/22 00:15:41;;;;;;;14.13;4.13;;;;;;;;;;5093237;28;20055;-65
2022/01/22 00:18:07;;;;;;;12.32;4.13;;;;;;;;;;5093818;28;20039;-65
2022/01/22 00:20:33;;;;;;;17.73;4.03;;;;;;;;;;5093637;28;20036;-64
2022/01/22 00:23:05;;;;;;;10.10;3.55;;;;;;;;;;5093054;28;20524;-64
2022/01/22 00:25:37;;;;;;;22.10;4.28;;;;;;;;;;5093202;28;20091;-65
2022/01/22 00:28:03;;;;;;;15.82;4.50;;;;;;;;;;5093652;28;20128;-65
2022/01/22 00:30:29;;;;;;;14.63;3.90;;;;;;;;;;5093633;28;20040;-65
2022/01/22 00:32:55;;;;;;;15.98;3.83;;;;;;;;;;5092990;28;20088;-64
2022/01/22 00:35:22;;;;;;;16.15;4.68;;;;;;;;;;5093214;28;20451;-66
2022/01/22 00:37:49;;;;;;;14.70;4.35;;;;;;;;;;5093832;28;20090;-65
2022/01/22 00:40:16;;;;;;;11.85;3.75;;;;;;;;;;5093424;28;20044;-65
2022/01/22 00:42:43;;;;;;;14.15;3.50;;;;;;;;;;5092745;28;20150;-64
2022/01/22 00:45:15;;;;;;;8.15;3.22;;;;;;;;;;5094164;28;20044;-64
2022/01/22 00:47:42;;;;;;;12.32;3.53;;;;;;;;;;5092597;28;20066;-65
2022/01/22 00:50:11;;;;;;;10.10;2.85;;;;;;;;;;5082030;28;20058;-64
2022/01/22 00:52:37;;;;;;;13.45;3.10;;;;;;;;;;5077295;28;20044;-64
2022/01/22 00:55:03;;;;;;;12.15;2.97;;;;;;;;;;5073016;28;20041;-64
2022/01/22 00:57:29;;;;;;;10.75;3.10;;;;;;;;;;5073031;28;20076;-64
2022/01/22 00:59:57;;;;;;;11.05;2.95;;;;;;;;;;5073005;28;20076;-64
2022/01/22 01:02:23;;;;;;;13.20;3.08;;;;;;;;;;5072035;28;20045;-64
2022/01/22 01:04:52;;;;;;;12.70;2.95;;;;;;;;;;5070885;28;20123;-65
2022/01/22 01:07:18;;;;;;;12.07;3.30;;;;;;;;;;5072677;28;20178;-65
2022/01/22 01:09:44;;;;;;;18.02;3.70;;;;;;;;;;5073061;28;20036;-65
2022/01/22 01:12:13;;;;;;;15.70;3.28;;;;;;;;;;5072201;28;20045;-65
2022/01/22 01:14:54;;;;;;;14.25;3.50;;;;;;;;;;5072543;28;20046;-65
2022/01/22 01:32:12;;;;;;;11.82;3.80;;;;;;;;;;5093185;28;20126;-64
2022/01/22 01:34:09;;;;;;;15.32;3.15;;;;;;;;;;5092946;28;20507;-65
2022/01/22 01:36:35;;;;;;;15.43;3.75;;;;;;;;;;5092897;28;20450;-66
2022/01/22 01:39:03;;;;;;;9.80;2.95;;;;;;;;;;5092460;28;20051;-66
2022/01/22 01:44:01;;;;;;;9.15;2.80;;;;;;;;;;5092005;28;20063;-66
2022/01/22 01:46:30;;;;;;;13.10;3.10;;;;;;;;;;5091014;28;20104;-65
2022/01/22 01:48:59;;;;;;;8.05;2.78;;;;;;;;;;5092238;28;20044;-66
2022/01/22 01:51:29;;;;;;;9.30;2.90;;;;;;;;;;5091879;28;20082;-65
2022/01/22 01:59:37;;;;;;;11.60;3.00;;;;;;;;;;5092023;28;20088;-65
2022/01/22 02:02:03;;;;;;;12.30;3.00;;;;;;;;;;5091462;28;20408;-66
2022/01/22 02:04:30;;;;;;;17.27;3.08;;;;;;;;;;5092382;28;20046;-66
2022/01/22 02:06:59;;;;;;;12.73;3.35;;;;;;;;;;5091644;28;20044;-66
2022/01/22 02:09:25;;;;;;;10.25;3.05;;;;;;;;;;5092139;28;20082;-66
2022/01/22 02:11:59;;;;;;;11.98;3.70;;;;;;;;;;5090619;28;20405;-65
2022/01/22 02:25:26;;;;;;;10.98;3.25;;;;;;;;;;5091382;28;20044;-66
2022/01/22 02:27:52;;;;;;;17.67;3.97;;;;;;;;;;5090975;28;20047;-66
2022/01/22 02:30:25;;;;;;;11.32;3.50;;;;;;;;;;5091708;28;20083;-66
2022/01/22 02:33:15;;;;;;;14.98;3.65;;;;;;;;;;5091118;28;20454;-66
2022/01/22 02:38:19;;;;;;;15.98;3.20;;;;;;;;;;5091435;28;20046;-66
2022/01/22 02:40:48;;;;;;;11.65;3.50;;;;;;;;;;5091286;28;20079;-66
2022/01/22 02:43:15;;;;;;;10.95;3.70;;;;;;;;;;5090779;28;20052;-66
2022/01/22 02:45:48;;;;;;;8.43;3.45;;;;;;;;;;5091500;28;20052;-66
2022/01/22 02:48:14;;;;;;;9.60;2.90;;;;;;;;;;5091154;28;20096;-66
2022/01/22 02:50:40;;;;;;;9.68;3.22;;;;;;;;;;5089720;28;20396;-66
2022/01/22 02:53:08;;;;;;;8.73;3.40;;;;;;;;;;5090751;28;20119;-66
2022/01/22 02:55:34;;;;;;;14.75;3.60;;;;;;;;;;5091223;28;20036;-66
2022/01/22 02:58:00;;;;;;;13.07;3.00;;;;;;;;;;5091262;28;20092;-66
2022/01/22 03:00:27;;;;;;;14.57;3.53;;;;;;;;;;5091136;28;20059;-66
2022/01/22 03:02:53;;;;;;;8.77;2.60;;;;;;;;;;5090505;28;20118;-66
2022/01/22 03:05:19;;;;;;;8.45;2.92;;;;;;;;;;5091033;28;20618;-66
2022/01/22 03:07:50;;;;;;;8.57;2.78;;;;;;;;;;5088193;28;20076;-65
2022/01/22 03:10:20;;;;;;;13.65;2.72;;;;;;;;;;5089700;28;20040;-65
2022/01/22 03:13:06;;;;;;;7.43;2.15;;;;;;;;;;5090861;28;20036;-65
2022/01/22 03:18:18;;;;;;;10.30;2.50;;;;;;;;;;5090782;28;20050;-66
2022/01/22 03:29:06;;;;;;;5.18;2.42;;;;;;;;;;5090398;28;20135;-66
2022/01/22 03:31:33;;;;;;;5.70;2.20;;;;;;;;;;5090409;28;20101;-66
2022/01/22 03:33:59;;;;;;;6.47;2.20;;;;;;;;;;5090914;28;20721;-66
2022/01/22 03:36:29;;;;;;;7.40;2.63;;;;;;;;;;5089042;28;20035;-66
2022/01/22 03:38:55;;;;;;;5.95;2.30;;;;;;;;;;5090680;28;20040;-65
2022/01/22 03:41:23;;;;;;;8.60;2.17;;;;;;;;;;5089653;28;20040;-65
2022/01/22 03:43:50;;;;;;;7.20;2.20;;;;;;;;;;5090618;28;20134;-64
2022/01/22 03:46:16;;;;;;;6.28;2.28;;;;;;;;;;5088856;28;20048;-64
2022/01/22 03:48:42;;;;;;;9.10;3.15;;;;;;;;;;5089767;28;20413;-64
2022/01/22 03:51:08;;;;;;;4.88;1.83;;;;;;;;;;5089533;28;20036;-64
2022/01/22 03:53:34;;;;;;;8.05;2.08;;;;;;;;;;5090275;28;20032;-64
2022/01/22 03:56:04;;;;;;;6.65;1.73;;;;;;;;;;5090230;28;20036;-64
2022/01/22 03:58:31;;;;;;;8.20;2.38;;;;;;;;;;5090534;28;20121;-65
2022/01/22 04:03:58;;;;;;;6.40;2.25;;;;;;;;;;5083610;28;20461;-64
2022/01/22 04:08:59;;;;;;;6.63;1.80;;;;;;;;;;5091477;28;20115;-64
2022/01/22 04:11:26;;;;;;;5.43;2.13;;;;;;;;;;5090995;28;20425;-64
2022/01/22 04:26:24;;;;;;;6.05;2.22;;;;;;;;;;5090976;28;20119;-65
2022/01/22 04:28:50;;;;;;;6.45;2.20;;;;;;;;;;5091311;28;20186;-65
2022/01/22 04:31:16;;;;;;;7.35;2.30;;;;;;;;;;5090766;28;20123;-65
2022/01/22 04:33:42;;;;;;;6.35;2.58;;;;;;;;;;5090757;28;20050;-65
2022/01/22 04:36:09;;;;;;;3.58;2.17;;;;;;;;;;5090876;28;20047;-64
2022/01/22 04:38:35;;;;;;;5.03;2.35;;;;;;;;;;5091151;28;20071;-65
2022/01/22 04:41:01;;;;;;;5.55;2.78;;;;;;;;;;5093420;28;20408;-65
2022/01/22 04:43:30;;;;;;;6.35;2.15;;;;;;;;;;5075736;28;20121;-66
2022/01/22 04:46:10;;;;;;;6.97;1.95;;;;;;;;;;5095116;28;20108;-65
2022/01/22 04:56:39;;;;;;;6.50;2.22;;;;;;;;;;5094680;28;20393;-65
2022/01/22 04:59:05;;;;;;;4.47;1.83;;;;;;;;;;5094318;28;20404;-65
2022/01/22 05:01:31;;;;;;;7.40;2.40;;;;;;;;;;5093708;28;20500;-64
2022/01/22 05:07:19;;;;;;;6.68;1.80;;;;;;;;;;5093689;28;20070;-65
2022/01/22 05:09:45;;;;;;;7.10;1.80;;;;;;;;;;5093769;28;20333;-64
2022/01/22 05:12:11;;;;;;;6.35;1.85;;;;;;;;;;5093811;28;20044;-64
2022/01/22 05:14:37;;;;;;;4.70;1.90;;;;;;;;;;5093836;28;20051;-64
2022/01/22 05:17:06;;;;;;;6.75;2.17;;;;;;;;;;5092085;28;20039;-64
2022/01/22 05:22:18;;;;;;;4.45;1.45;;;;;;;;;;5093485;28;20051;-64
2022/01/22 05:24:49;;;;;;;6.10;2.08;;;;;;;;;;5093725;28;20119;-65
2022/01/22 05:28:13;;;;;;;6.07;1.58;;;;;;;;;;5090439;28;20129;-64
2022/01/22 05:33:02;;;;;;;5.97;1.70;;;;;;;;;;5092844;28;20284;-64
2022/01/22 05:38:21;;;;;;;6.15;1.67;;;;;;;;;;5076622;28;20044;-66
2022/01/22 05:44:09;;;;;;;4.10;1.65;;;;;;;;;;5093017;28;20507;-65
2022/01/22 05:46:35;;;;;;;4.20;1.52;;;;;;;;;;5093583;28;20409;-65
2022/01/22 05:49:02;;;;;;;5.75;1.75;;;;;;;;;;5093484;28;20097;-65
2022/01/22 05:51:28;;;;;;;6.32;1.92;;;;;;;;;;5092317;28;20044;-65
2022/01/22 05:54:20;;;;;;;4.13;1.45;;;;;;;;;;5093339;28;20401;-66
2022/01/22 05:59:38;;;;;;;4.78;1.98;;;;;;;;;;5093227;28;20097;-65
2022/01/22 06:02:14;;;;;;;4.60;1.73;;;;;;;;;;5092975;28;20051;-65
2022/01/22 06:14:32;;;;;;;5.75;2.30;;;;;;;;;;5072492;28;20051;-65
2022/01/22 06:16:58;;;;;;;3.92;1.77;;;;;;;;;;5072335;28;20387;-65
2022/01/22 06:19:24;;;;;;;4.93;1.70;;;;;;;;;;5072623;28;20515;-65
2022/01/22 06:21:51;;;;;;;4.53;2.05;;;;;;;;;;5072352;28;20120;-66
2022/01/22 06:24:18;;;;;;;4.15;1.95;;;;;;;;;;5071896;28;20040;-66
2022/01/22 06:26:44;;;;;;;4.68;2.33;;;;;;;;;;5072441;28;20037;-65
2022/01/22 06:29:10;;;;;;;5.65;2.53;;;;;;;;;;5072398;28;20064;-66
2022/01/22 06:31:36;;;;;;;7.25;2.60;;;;;;;;;;5071823;28;20045;-65
2022/01/22 06:44:09;;;;;;;9.30;2.83;;;;;;;;;;5108808;22;20450;-67
2022/01/22 06:46:36;;;;;;;8.35;2.72;;;;;;;;;;5116206;27;20071;-66
2022/01/22 06:49:02;;;;;;;5.05;2.40;;;;;;;;;;5113108;28;20067;-67
2022/01/22 06:51:33;;;;;;;8.90;2.85;;;;;;;;;;5112270;22;20072;-66
2022/01/22 06:53:59;;;;;;;6.40;2.90;;;;;;;;;;5073295;28;20078;-66
2022/01/22 06:56:28;;;;;;;8.40;2.95;;;;;;;;;;5092038;28;20134;-63
2022/01/22 06:58:54;;;;;;;7.85;2.70;;;;;;;;;;5092363;28;20040;-63
2022/01/22 07:01:20;;;;;;;7.30;2.58;;;;;;;;;;5091828;28;20447;-63
2022/01/22 07:13:58;;;;;;;4.88;2.42;;;;;;;;;;5088053;28;20036;-65
2022/01/22 07:16:25;;;;;;;8.65;2.45;;;;;;;;;;5092667;28;20453;-66
2022/01/22 07:18:55;;;;;;;8.50;2.60;;;;;;;;;;5092120;28;20083;-65
2022/01/22 07:21:21;;;;;;;5.82;2.55;;;;;;;;;;5091274;28;20043;-65
2022/01/22 07:26:14;;;;;;;10.48;3.00;;;;;;;;;;5091600;28;20082;-66
2022/01/22 07:28:40;;;;;;;5.10;2.65;;;;;;;;;;5092068;28;20036;-66
2022/01/22 07:31:07;;;;;;;7.22;2.70;;;;;;;;;;5092030;28;20043;-65
2022/01/22 07:33:49;;;;;;;5.78;2.28;;;;;;;;;;5088876;28;20531;-66
2022/01/22 07:36:15;;;;;;;5.45;2.70;;;;;;;;;;5091404;28;20133;-65
2022/01/22 07:38:41;;;;;;;4.35;2.10;;;;;;;;;;5092135;28;20507;-65
2022/01/22 07:41:08;;;;;;;4.00;1.90;;;;;;;;;;5091754;28;20046;-66
2022/01/22 07:43:37;;;;;;;6.70;2.00;;;;;;;;;;5091529;28;20384;-64
2022/01/22 07:46:07;;;;;;;3.58;1.95;;;;;;;;;;5091569;28;20047;-65
2022/01/22 07:48:33;;;;;;;4.03;2.13;;;;;;;;;;5090994;28;20119;-64
2022/01/22 07:50:59;;;;;;;3.55;2.13;;;;;;;;;;5090849;28;20124;-65
2022/01/22 07:53:25;;;;;;;4.10;2.08;;;;;;;;;;5087653;28;20477;-65
2022/01/22 08:02:36;;;;;;;3.03;1.80;;;;;;;;;;5078410;28;20130;-66
2022/01/22 08:05:02;;;;;;;4.22;2.38;;;;;;;;;;5071659;28;20039;-65
2022/01/22 08:07:28;;;;;;;6.32;2.00;;;;;;;;;;5089800;28;20123;-64
2022/01/22 08:09:55;;;;;;;4.00;2.08;;;;;;;;;;5090081;28;20040;-64
2022/01/22 08:12:21;;;;;;;3.53;1.98;;;;;;;;;;5085247;28;20089;-64
2022/01/22 08:14:47;;;;;;;4.82;2.20;;;;;;;;;;5068602;28;20043;-64
2022/01/22 08:17:13;;;;;;;6.05;2.20;;;;;;;;;;5092091;28;20032;-64
2022/01/22 08:19:39;;;;;;;3.28;1.75;;;;;;;;;;5094223;28;20032;-65
2022/01/22 08:22:05;;;;;;;6.45;2.55;;;;;;;;;;5093673;28;20048;-66
2022/01/22 08:37:13;;;;;;;3.38;1.63;;;;;;;;;;5086529;28;20121;-64
2022/01/22 08:39:39;;;;;;;5.97;2.08;;;;;;;;;;5095097;28;20496;-65
2022/01/22 08:42:06;;;;;;;4.28;1.85;;;;;;;;;;5094516;28;20071;-67
2022/01/22 08:44:32;;;;;;;2.30;1.63;;;;;;;;;;5092454;28;20048;-65
2022/01/22 08:47:04;;;;;;;3.25;1.40;;;;;;;;;;5093378;28;20046;-65
2022/01/22 08:49:30;;;;;;;5.25;1.63;;;;;;;;;;5094443;28;20040;-65
2022/01/22 08:51:56;;;;;;;4.78;1.40;;;;;;;;;;5094075;28;20397;-66
2022/01/22 08:54:22;;;;;;;7.50;1.58;;;;;;;;;;5091704;28;20028;-66
2022/01/22 08:56:48;;;;;;;2.97;1.50;;;;;;;;;;5093797;28;20036;-65
2022/01/22 08:59:15;;;;;;;4.15;1.80;;;;;;;;;;5092722;28;20061;-65
2022/01/22 09:01:42;;;;;;;2.42;1.30;;;;;;;;;;5090031;28;20047;-65
2022/01/22 09:04:09;;;;;;;2.88;1.50;;;;;;;;;;5093299;28;20028;-65
2022/01/22 09:06:35;;;;;;;2.40;1.35;;;;;;;;;;5093626;28;20047;-66
2022/01/22 09:09:11;;;;;;;5.93;1.52;;;;;;;;;;5092801;28;20118;-67
2022/01/22 09:11:38;;;;;;;3.63;1.42;;;;;;;;;;5072481;28;20090;-63
2022/01/22 09:14:05;;;;;;;4.35;1.52;;;;;;;;;;5085475;28;20105;-65
2022/01/22 09:16:31;;;;;;;4.00;1.95;;;;;;;;;;5092690;28;20452;-65
2022/01/22 09:19:10;;;;;;;6.15;2.00;;;;;;;;;;5091479;28;20082;-65
2022/01/22 09:21:46;;;;;;;8.05;1.98;;;;;;;;;;5092202;28;20044;-65
2022/01/22 09:24:15;;;;;;;3.78;1.75;;;;;;;;;;5092470;28;20065;-64
2022/01/22 09:26:41;;;;;;;5.22;2.00;;;;;;;;;;5075605;28;20040;-65
2022/01/22 09:29:07;;;;;;;2.80;1.90;;;;;;;;;;5071399;28;20029;-65
2022/01/22 09:31:36;;;;;;;5.20;2.22;;;;;;;;;;5083999;28;20378;-66
2022/01/22 09:34:05;;;;;;;5.63;2.53;;;;;;;;;;5092545;28;20097;-65
2022/01/22 09:36:32;;;;;;;7.75;2.33;;;;;;;;;;5093577;28;20072;-65
2022/01/22 09:38:58;;;;;;;8.50;2.65;;;;;;;;;;5089074;28;20055;-65
2022/01/22 09:41:26;;;;;;;4.70;2.80;;;;;;;;;;5086421;28;20465;-66
2022/01/22 09:43:53;;;;;;;4.22;2.58;;;;;;;;;;5088475;28;20036;-64
2022/01/22 09:46:20;;;;;;;6.32;2.35;;;;;;;;;;5082330;28;20044;-66
2022/01/22 09:48:54;;;;;;;6.50;2.30;;;;;;;;;;5084705;28;20071;-64
2022/01/22 09:51:24;;;;;;;3.72;2.10;;;;;;;;;;5075272;28;20115;-66
2022/01/22 09:53:53;;;;;;;5.32;1.92;;;;;;;;;;5082390;28;20050;-65
2022/01/22 09:56:28;;;;;;;6.57;2.30;;;;;;;;;;5081519;28;20300;-64
2022/01/22 09:58:54;;;;;;;9.25;2.60;;;;;;;;;;5076631;28;20039;-63
2022/01/22 10:01:27;;;;;;;5.28;2.25;;;;;;;;;;5089126;28;20036;-65
2022/01/22 10:04:04;;;;;;;5.95;2.03;;;;;;;;;;5052218;28;20045;-64
2022/01/22 10:06:31;;;;;;;5.57;2.63;;;;;;;;;;5079277;28;20504;-64
2022/01/22 10:09:33;;;;;;;6.75;2.40;;;;;;;;;;5063035;28;20105;-65
2022/01/22 10:12:17;;;;;;;6.28;2.80;;;;;;;;;;5069183;28;20071;-66
2022/01/22 10:14:43;;;;;;;;;;;;;;;;;;5091946;28;20449;-65
2022/01/22 10:17:09;;;;;;;8.25;3.00;;;;;;;;;;5088664;28;19995;-65
2022/01/22 10:19:35;;;;;;;9.75;3.63;;;;;;;;;;5106054;28;20067;-64
2022/01/22 10:22:03;;;;;;;6.68;3.85;;;;;;;;;;5073635;28;20374;-66
2022/01/22 10:24:42;;;;;;;9.65;3.85;;;;;;;;;;5090858;28;20495;-66
2022/01/22 10:27:23;;;;;;;8.25;3.40;;;;;;;;;;5085576;28;20207;-65
2022/01/22 10:30:08;;;;;;;8.38;3.60;;;;;;;;;;5111888;28;20114;-66
2022/01/22 10:32:45;;;;;;;5.70;3.03;;;;;;;;;;5111309;28;20040;-65
2022/01/22 10:35:13;;;;;;;7.80;3.10;;;;;;;;;;5111096;28;20046;-65
2022/01/22 10:37:39;;;;;;;9.43;3.83;;;;;;;;;;5092053;28;20483;-66
2022/01/22 10:40:20;;;;;;;6.47;3.30;;;;;;;;;;5110836;28;20044;-66
2022/01/22 10:42:46;;;;;;;8.05;3.35;;;;;;;;;;5085869;28;20097;-66
2022/01/22 10:45:24;;;;;;;6.70;2.90;;;;;;;;;;5100971;28;20047;-66
2022/01/22 10:47:51;;;;;;;4.35;2.60;;;;;;;;;;5058726;28;20047;-66
2022/01/22 10:50:21;;;;;;;7.13;2.80;;;;;;;;;;5082818;28;20076;-66
2022/01/22 10:52:51;;;;;;;7.78;3.00;;;;;;;;;;5080292;28;20046;-66
2022/01/22 10:55:17;;;;;;;8.73;4.07;;;;;;;;;;5088137;28;20383;-66
2022/01/22 10:58:03;;;;;;;10.98;4.70;;;;;;;;;;5065991;28;20036;-66
2022/01/22 11:00:29;;;;;;;9.90;3.80;;;;;;;;;;5079322;28;20516;-66
2022/01/22 11:02:55;;;;;;;10.82;4.07;;;;;;;;;;5062480;28;20083;-66
2022/01/22 11:05:35;;;;;;;8.85;3.58;;;;;;;;;;5084375;28;20203;-66
2022/01/22 11:08:12;;;;;;;7.60;3.40;;;;;;;;;;5090423;28;20050;-65
2022/01/22 11:10:40;;;;;;;6.75;3.05;;;;;;;;;;5090001;28;20556;-66
2022/01/22 11:13:06;;;;;;;10.93;3.17;;;;;;;;;;5090065;28;20092;-66
2022/01/22 11:15:35;;;;;;;8.57;3.50;;;;;;;;;;5105878;28;20039;-66
2022/01/22 11:18:05;;;;;;;8.80;3.05;;;;;;;;;;5092710;28;20040;-64
2022/01/22 11:20:32;;;;;;;9.57;2.70;;;;;;;;;;5097982;28;20036;-65
2022/01/22 11:22:59;;;;;;;7.38;2.70;;;;;;;;;;5071597;28;20051;-65
2022/01/22 11:25:25;;;;;;;6.15;2.50;;;;;;;;;;5088106;28;20075;-66
2022/01/22 11:27:52;;;;;;;6.47;2.65;;;;;;;;;;5089314;28;20082;-65
2022/01/22 11:30:18;;;;;;;8.43;2.60;;;;;;;;;;5087582;28;20085;-65
2022/01/22 11:32:47;;;;;;;9.48;3.65;;;;;;;;;;5085668;28;20076;-66
2022/01/22 11:35:14;;;;;;;6.93;2.80;;;;;;;;;;5086122;28;20079;-66
2022/01/22 11:37:45;;;;;;;9.80;2.85;;;;;;;;;;5085643;28;20040;-65
2022/01/22 11:40:16;;;;;;;6.15;2.55;;;;;;;;;;5085914;28;20124;-65
2022/01/22 11:42:56;;;;;;;11.93;3.17;;;;;;;;;;5085562;28;20545;-66
2022/01/22 11:45:28;;;;;;;7.55;2.85;;;;;;;;;;5070951;28;20397;-66
2022/01/22 11:48:09;;;;;;;11.82;3.47;;;;;;;;;;5090886;28;20047;-65
2022/01/22 11:50:35;;;;;;;8.45;2.95;;;;;;;;;;5075697;28;20036;-65
2022/01/22 11:53:20;;;;;;;7.45;3.17;;;;;;;;;;5076521;28;20040;-65
2022/01/22 11:56:06;;;;;;;10.20;3.28;;;;;;;;;;5095238;28;20405;-66
2022/01/22 11:58:32;;;;;;;15.32;4.68;;;;;;;;;;5076870;28;20044;-65
2022/01/22 12:00:58;;;;;;;11.15;5.05;;;;;;;;;;5094357;28;20112;-65
2022/01/22 12:03:24;;;;;;;8.90;4.00;;;;;;;;;;5095027;28;20043;-65
2022/01/22 12:05:50;;;;;;;11.35;4.32;;;;;;;;;;5095433;28;20044;-66
2022/01/22 12:08:16;;;;;;;9.90;4.75;;;;;;;;;;5094867;28;20059;-65
2022/01/22 12:10:43;;;;;;;11.90;4.38;;;;;;;;;;5094720;28;20040;-65
2022/01/22 12:16:11;;;;;;;12.43;4.57;;;;;;;;;;5094784;28;20040;-65
2022/01/22 12:18:42;;;;;;;12.20;4.80;;;;;;;;;;5094554;28;20492;-65
2022/01/22 12:23:54;;;;;;;15.20;5.93;;;;;;;;;;5076765;28;20055;-65
2022/01/22 12:26:53;;;;;;;11.85;5.05;;;;;;;;;;5094493;28;20044;-65
2022/01/22 12:29:29;;;;;;;12.88;4.47;;;;;;;;;;5050275;28;20226;-66
2022/01/22 12:32:36;;;;;;;16.70;5.57;;;;;;;;;;5094086;28;20044;-65
2022/01/22 12:35:07;;;;;;;13.85;5.50;;;;;;;;;;5011856;28;20050;-65
2022/01/22 12:37:38;;;;;;;12.05;5.55;;;;;;;;;;5066162;28;20127;-66
2022/01/22 12:40:06;;;;;;;12.40;5.68;;;;;;;;;;5076220;28;20048;-65
2022/01/22 12:42:53;;;;;;;15.30;6.07;;;;;;;;;;5092511;28;20046;-65
2022/01/22 12:45:22;;;;;;;10.70;5.68;;;;;;;;;;5094432;28;20044;-66
2022/01/22 12:47:49;;;;;;;13.57;5.95;;;;;;;;;;5076006;28;20047;-65
2022/01/22 12:50:15;;;;;;;14.52;6.00;;;;;;;;;;5094317;28;20032;-65
2022/01/22 12:52:46;;;;;;;14.45;6.43;;;;;;;;;;5075119;28;20516;-67
2022/01/22 12:55:37;;;;;;;13.55;6.10;;;;;;;;;;5093802;28;20046;-72
2022/01/22 12:58:28;;;;;;;15.30;6.43;;;;;;;;;;5094086;28;20400;-67
2022/01/22 13:01:08;;;;;;;11.13;6.25;;;;;;;;;;5090881;28;20059;-68
2022/01/22 13:03:35;;;;;;;15.43;6.13;;;;;;;;;;5075448;28;20047;-65
2022/01/22 13:06:01;;;;;;;11.48;5.70;;;;;;;;;;5093702;28;20039;-65
2022/01/22 13:08:28;;;;;;;15.32;5.40;;;;;;;;;;5075397;28;20044;-65
2022/01/22 13:10:55;;;;;;;15.45;4.78;;;;;;;;;;5093333;28;20509;-66
2022/01/22 13:13:21;;;;;;;11.80;5.55;;;;;;;;;;5075054;28;20114;-66
2022/01/22 13:15:59;;;;;;;9.20;3.92;;;;;;;;;;5075184;28;20136;-65
2022/01/22 13:18:48;;;;;;;9.50;4.72;;;;;;;;;;5076070;28;20050;-65
2022/01/22 13:21:16;;;;;;;15.45;4.70;;;;;;;;;;5093004;28;20044;-66
2022/01/22 13:23:42;;;;;;;17.75;4.82;;;;;;;;;;5075303;28;20374;-67
2022/01/22 13:26:09;;;;;;;8.50;4.43;;;;;;;;;;5075017;28;20158;-66
2022/01/22 13:28:38;;;;;;;9.70;4.45;;;;;;;;;;5075444;28;20040;-67
2022/01/22 13:31:12;;;;;;;10.55;4.57;;;;;;;;;;5093447;28;20512;-65
2022/01/22 13:38:55;;;;;;;14.43;4.70;;;;;;;;;;5093250;28;20036;-66
2022/01/22 13:49:42;;;;;;;8.82;3.38;;;;;;;;;;5054565;28;20044;-66
2022/01/22 13:52:12;;;;;;;7.72;3.40;;;;;;;;;;5092813;28;20561;-67
2022/01/22 13:54:43;;;;;;;10.27;4.10;;;;;;;;;;5074798;28;20050;-66
2022/01/22 13:57:16;;;;;;;8.85;3.58;;;;;;;;;;5075093;28;20130;-66
2022/01/22 13:59:56;;;;;;;7.65;3.28;;;;;;;;;;5093108;28;20135;-66
2022/01/22 14:02:52;;;;;;;10.88;3.70;;;;;;;;;;5074664;28;20040;-66
2022/01/22 14:05:18;;;;;;;7.18;3.40;;;;;;;;;;5075011;28;20265;-64
2022/01/22 14:07:49;;;;;;;11.82;4.28;;;;;;;;;;5092447;28;20386;-66
2022/01/22 14:10:15;;;;;;;10.75;3.65;;;;;;;;;;5092461;28;20111;-66
2022/01/22 14:15:16;;;;;;;7.78;2.97;;;;;;;;;;5092424;28;20040;-65
2022/01/22 14:20:33;;;;;;;11.80;3.65;;;;;;;;;;5092774;28;20844;-65
2022/01/22 14:23:09;;;;;;;7.80;3.17;;;;;;;;;;5092241;28;20040;-65
2022/01/22 14:25:37;;;;;;;9.80;3.95;;;;;;;;;;5092442;28;20047;-66
2022/01/22 14:28:07;;;;;;;11.80;3.58;;;;;;;;;;5092228;28;20396;-65
2022/01/22 14:30:36;;;;;;;10.35;3.33;;;;;;;;;;5073882;28;20392;-65
2022/01/22 14:33:03;;;;;;;13.80;3.58;;;;;;;;;;5073499;28;20198;-65
2022/01/22 14:35:30;;;;;;;11.00;3.60;;;;;;;;;;5074111;28;20052;-65
2022/01/22 14:37:59;;;;;;;10.23;3.65;;;;;;;;;;5092134;28;20078;-67
2022/01/22 14:46:02;;;;;;;8.25;3.45;;;;;;;;;;5092016;28;20078;-65
2022/01/22 14:48:28;;;;;;;8.45;3.13;;;;;;;;;;5092224;28;20492;-64
2022/01/22 14:50:55;;;;;;;8.73;3.00;;;;;;;;;;5073655;28;20082;-65
2022/01/22 14:53:21;;;;;;;7.28;3.53;;;;;;;;;;5091210;28;20044;-65
2022/01/22 14:56:03;;;;;;;7.10;2.97;;;;;;;;;;5073371;28;20400;-65
2022/01/22 14:58:29;;;;;;;7.10;3.00;;;;;;;;;;5091894;28;20401;-65
2022/01/22 15:00:55;;;;;;;11.15;3.00;;;;;;;;;;5091801;28;20051;-64
2022/01/22 15:03:21;;;;;;;7.45;2.45;;;;;;;;;;5091438;28;20040;-65
2022/01/22 15:05:47;;;;;;;7.72;3.03;;;;;;;;;;5124974;23;20514;-66
2022/01/22 15:08:13;;;;;;;5.45;2.63;;;;;;;;;;5131579;27;20046;-66
2022/01/22 15:10:39;;;;;;;7.30;2.85;;;;;;;;;;5113511;27;20047;-65
2022/01/22 15:13:11;;;;;;;10.30;3.60;;;;;;;;;;5145793;27;20039;-67
2022/01/22 15:15:45;;;;;;;9.45;3.30;;;;;;;;;;5152715;27;20451;-67
2022/01/22 15:18:25;;;;;;;11.68;3.42;;;;;;;;;;5152479;27;20049;-64
2022/01/22 15:20:51;;;;;;;6.68;3.55;;;;;;;;;;5152141;27;20039;-64
2022/01/22 15:23:17;;;;;;;7.38;2.80;;;;;;;;;;5134202;27;20046;-64
2022/01/22 15:25:43;;;;;;;7.45;2.95;;;;;;;;;;5152228;27;20074;-65
2022/01/22 15:28:09;;;;;;;7.72;2.97;;;;;;;;;;5153250;27;20066;-65
2022/01/22 15:30:36;;;;;;;10.20;2.80;;;;;;;;;;5152846;27;20030;-65
2022/01/22 15:35:29;;;;;;;11.85;3.63;;;;;;;;;;5152461;27;20054;-65
2022/01/22 15:37:57;;;;;;;8.82;3.40;;;;;;;;;;5152816;27;20066;-65
2022/01/22 15:40:25;;;;;;;7.68;3.67;;;;;;;;;;5152426;27;20121;-65
2022/01/22 15:42:51;;;;;;;9.07;3.10;;;;;;;;;;5151989;27;20039;-65
2022/01/22 15:45:21;;;;;;;10.38;3.83;;;;;;;;;;5151985;27;20073;-64
2022/01/22 15:47:47;;;;;;;11.02;3.97;;;;;;;;;;5116521;27;20077;-65
2022/01/22 15:50:22;;;;;;;6.68;3.65;;;;;;;;;;5151918;27;20099;-66
2022/01/22 15:52:48;;;;;;;9.48;3.53;;;;;;;;;;5151649;27;20037;-66
2022/01/22 15:55:23;;;;;;;7.43;3.95;;;;;;;;;;5151986;27;20035;-66
2022/01/22 15:57:49;;;;;;;7.75;3.28;;;;;;;;;;5151257;27;20134;-66
2022/01/22 16:00:15;;;;;;;8.93;3.13;;;;;;;;;;5151681;27;20093;-66
2022/01/22 16:02:47;;;;;;;9.85;3.30;;;;;;;;;;5131752;27;20501;-68
2022/01/22 16:05:13;;;;;;;8.48;2.53;;;;;;;;;;5148607;27;20039;-66
2022/01/22 16:07:40;;;;;;;7.57;2.25;;;;;;;;;;5150609;27;20049;-66
2022/01/22 16:10:07;;;;;;;7.45;2.47;;;;;;;;;;5132851;27;20042;-67
2022/01/22 16:12:33;;;;;;;6.47;2.40;;;;;;;;;;5151052;27;20487;-68
2022/01/22 16:18:21;;;;;;;3.53;2.13;;;;;;;;;;5150321;27;20444;-67
2022/01/22 16:20:47;;;;;;;7.38;2.38;;;;;;;;;;5133066;27;20050;-66
2022/01/22 16:23:13;;;;;;;6.40;2.40;;;;;;;;;;5151306;27;20115;-67
2022/01/22 16:25:42;;;;;;;7.05;2.58;;;;;;;;;;5152201;27;20035;-67
2022/01/22 16:28:09;;;;;;;4.25;2.15;;;;;;;;;;5151738;27;20045;-66
2022/01/22 16:30:35;;;;;;;6.50;2.13;;;;;;;;;;5152048;27;20035;-66
2022/01/22 16:33:04;;;;;;;5.60;1.98;;;;;;;;;;5144683;27;20031;-66
2022/01/22 16:35:31;;;;;;;4.75;2.10;;;;;;;;;;5137823;27;20123;-66
2022/01/22 16:37:57;;;;;;;7.55;2.00;;;;;;;;;;5136759;27;20628;-66
2022/01/22 16:40:27;;;;;;;4.85;2.13;;;;;;;;;;5155556;27;20062;-67
2022/01/22 16:43:03;;;;;;;9.10;3.17;;;;;;;;;;5156317;27;20042;-66
2022/01/22 16:54:53;;;;;;;9.50;3.30;;;;;;;;;;5151689;27;20065;-67
2022/01/22 16:57:29;;;;;;;6.45;2.33;;;;;;;;;;5151655;27;20043;-65
2022/01/22 17:00:01;;;;;;;12.27;3.33;;;;;;;;;;5135197;27;20043;-66
2022/01/22 17:02:32;;;;;;;6.75;3.45;;;;;;;;;;5140207;27;20048;-65
2022/01/22 17:05:06;;;;;;;7.47;3.38;;;;;;;;;;5133280;27;20036;-66
2022/01/22 17:07:40;;;;;;;6.38;2.92;;;;;;;;;;5136569;27;20403;-65
2022/01/22 17:10:17;;;;;;;10.85;3.33;;;;;;;;;;5129417;27;20043;-65
2022/01/22 17:15:28;;;;;;;5.22;2.60;;;;;;;;;;5133750;27;20050;-64
2022/01/22 17:17:55;;;;;;;5.57;2.30;;;;;;;;;;5133262;27;20423;-63
2022/01/22 17:20:21;;;;;;;4.95;2.75;;;;;;;;;;5133856;27;20043;-63
2022/01/22 17:22:50;;;;;;;5.70;2.83;;;;;;;;;;5132054;27;20130;-65
2022/01/22 17:25:17;;;;;;;4.40;2.20;;;;;;;;;;5132719;27;20485;-64
2022/01/22 17:27:43;;;;;;;6.53;2.50;;;;;;;;;;5132926;27;20046;-65
2022/01/22 17:30:12;;;;;;;3.97;2.17;;;;;;;;;;5133940;27;20046;-65
2022/01/22 17:32:41;;;;;;;3.53;2.50;;;;;;;;;;5133122;27;20031;-64
2022/01/22 17:35:07;;;;;;;3.00;2.30;;;;;;;;;;5133669;27;20043;-65
2022/01/22 17:37:34;;;;;;;5.55;2.35;;;;;;;;;;5133866;27;20082;-64
2022/01/22 17:40:04;;;;;;;5.88;2.00;;;;;;;;;;5145229;27;20507;-64
2022/01/22 17:42:32;;;;;;;3.05;1.98;;;;;;;;;;5147718;27;20270;-64
2022/01/22 17:45:07;;;;;;;5.82;1.90;;;;;;;;;;5147414;27;20034;-64
2022/01/22 17:47:33;;;;;;;4.72;2.10;;;;;;;;;;5151757;27;20042;-65
2022/01/22 17:50:30;;;;;;;2.35;2.05;;;;;;;;;;5145806;27;20031;-64
2022/01/22 17:52:56;;;;;;;5.40;2.75;;;;;;;;;;5124095;27;20027;-65
2022/01/22 17:55:37;;;;;;;5.35;2.10;;;;;;;;;;5131587;27;20038;-65
2022/01/22 17:58:06;;;;;;;4.50;2.15;;;;;;;;;;5133478;27;20031;-65
2022/01/22 18:00:33;;;;;;;3.83;2.30;;;;;;;;;;5133073;27;20043;-64
2022/01/22 18:03:12;;;;;;;5.47;2.05;;;;;;;;;;5140464;27;20062;-65